sensor_id;sensor_type;location;lat;lon;timestamp;temperature;humidity
54264;DHT22;40178;53.042;6.406;2023-09-18T00:01:05;15.60;99.90
54264;DHT22;40178;53.042;6.406;2023-09-18T00:03:32;15.60;99.90
54264;DHT22;40178;53.042;6.406;2023-09-18T00:05:58;15.60;99.90
54264;DHT22;40178;53.042;6.406;2023-09-18T00:08:24;15.60;99.90
54264;DHT22;40178;53.042;6.406;2023-09-18T00:10:52;15.70;99.90
54264;DHT22;40178;53.042;6.406;2023-09-18T00:13:18;15.50;99.90
54264;DHT22;40178;53.042;6.406;2023-09-18T00:15:44;15.40;99.90
54264;DHT22;40178;53.042;6.406;2023-09-18T00:18:17;15.50;99.90
54264;DHT22;40178;53.042;6.406;2023-09-18T00:20:42;15.40;99.90
54264;DHT22;40178;53.042;6.406;2023-09-18T00:23:09;15.30;99.90
54264;DHT22;40178;53.042;6.406;2023-09-18T00:25:34;15.30;99.90
54264;DHT22;40178;53.042;6.406;2023-09-18T00:28:00;15.30;99.90
54264;DHT22;40178;53.042;6.406;2023-09-18T00:30:25;15.30;99.90
54264;DHT22;40178;53.042;6.406;2023-09-18T00:32:51;15.30;99.90
54264;DHT22;40178;53.042;6.406;2023-09-18T00:35:17;15.40;99.90
54264;DHT22;40178;53.042;6.406;2023-09-18T00:37:42;15.50;99.90
54264;DHT22;40178;53.042;6.406;2023-09-18T00:40:09;15.50;99.90
54264;DHT22;40178;53.042;6.406;2023-09-18T00:42:36;15.50;99.90
54264;DHT22;40178;53.042;6.406;2023-09-18T00:45:01;15.50;99.90
54264;DHT22;40178;53.042;6.406;2023-09-18T00:47:28;15.50;99.90
54264;DHT22;40178;53.042;6.406;2023-09-18T00:49:54;15.60;99.90
54264;DHT22;40178;53.042;6.406;2023-09-18T00:52:22;15.70;99.90
54264;DHT22;40178;53.042;6.406;2023-09-18T00:54:49;15.50;99.90
54264;DHT22;40178;53.042;6.406;2023-09-18T00:57:15;15.60;99.90
54264;DHT22;40178;53.042;6.406;2023-09-18T00:59:41;15.50;99.90
54264;DHT22;40178;53.042;6.406;2023-09-18T01:02:07;15.50;99.90
54264;DHT22;40178;53.042;6.406;2023-09-18T01:04:34;15.40;99.90
54264;DHT22;40178;53.042;6.406;2023-09-18T01:07:00;15.40;99.90
54264;DHT22;40178;53.042;6.406;2023-09-18T01:09:32;15.50;99.90
54264;DHT22;40178;53.042;6.406;2023-09-18T01:12:23;15.60;99.90
54264;DHT22;40178;53.042;6.406;2023-09-18T01:17:35;15.50;99.90
54264;DHT22;40178;53.042;6.406;2023-09-18T01:20:04;15.50;99.90
54264;DHT22;40178;53.042;6.406;2023-09-18T01:22:31;15.50;99.90
54264;DHT22;40178;53.042;6.406;2023-09-18T01:24:58;15.50;99.90
54264;DHT22;40178;53.042;6.406;2023-09-18T01:27:24;15.60;99.90
54264;DHT22;40178;53.042;6.406;2023-09-18T01:29:49;15.50;99.90
54264;DHT22;40178;53.042;6.406;2023-09-18T01:32:16;15.70;99.90
54264;DHT22;40178;53.042;6.406;2023-09-18T01:34:53;15.60;99.90
54264;DHT22;40178;53.042;6.406;2023-09-18T01:37:22;15.60;99.90
54264;DHT22;40178;53.042;6.406;2023-09-18T01:39:50;15.70;99.90
54264;DHT22;40178;53.042;6.406;2023-09-18T01:42:16;15.70;99.90
54264;DHT22;40178;53.042;6.406;2023-09-18T01:44:42;15.70;99.90
54264;DHT22;40178;53.042;6.406;2023-09-18T01:47:11;15.70;99.90
54264;DHT22;40178;53.042;6.406;2023-09-18T01:49:39;15.60;99.90
54264;DHT22;40178;53.042;6.406;2023-09-18T01:52:06;15.80;99.90
54264;DHT22;40178;53.042;6.406;2023-09-18T01:54:33;15.80;99.90
54264;DHT22;40178;53.042;6.406;2023-09-18T01:56:59;15.80;99.90
54264;DHT22;40178;53.042;6.406;2023-09-18T01:59:25;15.80;99.90
54264;DHT22;40178;53.042;6.406;2023-09-18T02:01:51;16.00;99.90
54264;DHT22;40178;53.042;6.406;2023-09-18T02:04:17;16.00;99.90
54264;DHT22;40178;53.042;6.406;2023-09-18T02:06:44;15.90;99.90
54264;DHT22;40178;53.042;6.406;2023-09-18T02:09:10;16.10;99.90
54264;DHT22;40178;53.042;6.406;2023-09-18T02:11:41;16.00;99.90
54264;DHT22;40178;53.042;6.406;2023-09-18T02:14:07;16.00;99.90
54264;DHT22;40178;53.042;6.406;2023-09-18T02:16:33;16.00;99.90
54264;DHT22;40178;53.042;6.406;2023-09-18T02:18:59;16.10;99.90
54264;DHT22;40178;53.042;6.406;2023-09-18T02:21:25;16.20;99.90
54264;DHT22;40178;53.042;6.406;2023-09-18T02:23:52;16.10;99.90
54264;DHT22;40178;53.042;6.406;2023-09-18T02:26:19;16.20;99.90
54264;DHT22;40178;53.042;6.406;2023-09-18T02:28:45;16.10;99.90
54264;DHT22;40178;53.042;6.406;2023-09-18T02:31:11;16.10;99.90
54264;DHT22;40178;53.042;6.406;2023-09-18T02:33:40;16.10;99.90
54264;DHT22;40178;53.042;6.406;2023-09-18T02:36:06;16.20;99.90
54264;DHT22;40178;53.042;6.406;2023-09-18T02:38:33;16.20;99.90
54264;DHT22;40178;53.042;6.406;2023-09-18T02:40:59;16.10;99.90
54264;DHT22;40178;53.042;6.406;2023-09-18T02:43:25;16.30;99.90
54264;DHT22;40178;53.042;6.406;2023-09-18T02:45:51;16.30;99.90
54264;DHT22;40178;53.042;6.406;2023-09-18T02:48:17;16.20;99.90
54264;DHT22;40178;53.042;6.406;2023-09-18T02:50:43;16.20;99.90
54264;DHT22;40178;53.042;6.406;2023-09-18T02:53:20;16.30;99.90
54264;DHT22;40178;53.042;6.406;2023-09-18T02:55:50;16.30;99.90
54264;DHT22;40178;53.042;6.406;2023-09-18T02:58:16;16.30;99.90
54264;DHT22;40178;53.042;6.406;2023-09-18T03:00:42;16.40;99.90
54264;DHT22;40178;53.042;6.406;2023-09-18T03:03:11;16.30;99.90
54264;DHT22;40178;53.042;6.406;2023-09-18T03:05:38;16.20;99.90
54264;DHT22;40178;53.042;6.406;2023-09-18T03:08:04;16.40;99.90
54264;DHT22;40178;53.042;6.406;2023-09-18T03:10:38;16.40;99.90
54264;DHT22;40178;53.042;6.406;2023-09-18T03:13:05;16.60;99.90
54264;DHT22;40178;53.042;6.406;2023-09-18T03:15:31;16.40;99.90
54264;DHT22;40178;53.042;6.406;2023-09-18T03:17:58;16.50;99.90
54264;DHT22;40178;53.042;6.406;2023-09-18T03:20:25;16.60;99.90
54264;DHT22;40178;53.042;6.406;2023-09-18T03:22:52;16.50;99.90
54264;DHT22;40178;53.042;6.406;2023-09-18T03:25:17;16.60;99.90
54264;DHT22;40178;53.042;6.406;2023-09-18T03:27:43;16.70;99.90
54264;DHT22;40178;53.042;6.406;2023-09-18T03:30:09;16.60;99.90
54264;DHT22;40178;53.042;6.406;2023-09-18T03:32:38;16.70;99.90
54264;DHT22;40178;53.042;6.406;2023-09-18T03:35:04;16.80;99.90
54264;DHT22;40178;53.042;6.406;2023-09-18T03:37:30;16.90;99.90
54264;DHT22;40178;53.042;6.406;2023-09-18T03:39:55;16.90;99.90
54264;DHT22;40178;53.042;6.406;2023-09-18T03:42:21;17.00;99.90
54264;DHT22;40178;53.042;6.406;2023-09-18T03:44:47;17.00;99.90
54264;DHT22;40178;53.042;6.406;2023-09-18T03:47:12;16.90;99.90
54264;DHT22;40178;53.042;6.406;2023-09-18T03:49:38;17.20;99.90
54264;DHT22;40178;53.042;6.406;2023-09-18T03:52:03;17.10;99.90
54264;DHT22;40178;53.042;6.406;2023-09-18T03:54:29;17.10;99.90
54264;DHT22;40178;53.042;6.406;2023-09-18T03:56:55;17.20;99.90
54264;DHT22;40178;53.042;6.406;2023-09-18T03:59:20;17.30;99.90
54264;DHT22;40178;53.042;6.406;2023-09-18T04:01:46;17.40;99.90
54264;DHT22;40178;53.042;6.406;2023-09-18T04:04:11;17.30;99.90
54264;DHT22;40178;53.042;6.406;2023-09-18T04:06:40;17.40;99.90
54264;DHT22;40178;53.042;6.406;2023-09-18T04:09:06;17.40;99.90
54264;DHT22;40178;53.042;6.406;2023-09-18T04:11:31;17.40;99.90
54264;DHT22;40178;53.042;6.406;2023-09-18T04:13:58;17.30;99.90
54264;DHT22;40178;53.042;6.406;2023-09-18T04:16:25;17.30;99.90
54264;DHT22;40178;53.042;6.406;2023-09-18T04:18:50;17.40;99.90
54264;DHT22;40178;53.042;6.406;2023-09-18T04:21:16;17.30;99.90
54264;DHT22;40178;53.042;6.406;2023-09-18T04:23:41;17.20;99.90
54264;DHT22;40178;53.042;6.406;2023-09-18T04:26:07;17.20;99.90
54264;DHT22;40178;53.042;6.406;2023-09-18T04:28:32;17.20;99.90
54264;DHT22;40178;53.042;6.406;2023-09-18T04:30:58;17.30;99.90
54264;DHT22;40178;53.042;6.406;2023-09-18T04:33:24;17.20;99.90
54264;DHT22;40178;53.042;6.406;2023-09-18T04:35:50;17.10;99.90
54264;DHT22;40178;53.042;6.406;2023-09-18T04:38:16;17.20;99.90
54264;DHT22;40178;53.042;6.406;2023-09-18T04:40:44;17.20;99.90
54264;DHT22;40178;53.042;6.406;2023-09-18T04:43:11;17.30;99.90
54264;DHT22;40178;53.042;6.406;2023-09-18T04:45:37;17.40;99.90
54264;DHT22;40178;53.042;6.406;2023-09-18T04:48:03;17.30;99.90
54264;DHT22;40178;53.042;6.406;2023-09-18T04:50:31;17.40;99.90
54264;DHT22;40178;53.042;6.406;2023-09-18T04:52:57;17.40;99.90
54264;DHT22;40178;53.042;6.406;2023-09-18T04:55:23;17.40;99.90
54264;DHT22;40178;53.042;6.406;2023-09-18T04:57:48;17.60;99.90
54264;DHT22;40178;53.042;6.406;2023-09-18T05:00:14;17.60;99.90
54264;DHT22;40178;53.042;6.406;2023-09-18T05:02:40;17.60;99.90
54264;DHT22;40178;53.042;6.406;2023-09-18T05:05:06;17.60;99.90
54264;DHT22;40178;53.042;6.406;2023-09-18T05:07:34;17.70;99.90
54264;DHT22;40178;53.042;6.406;2023-09-18T05:10:00;17.60;99.90
54264;DHT22;40178;53.042;6.406;2023-09-18T05:12:26;17.60;99.90
54264;DHT22;40178;53.042;6.406;2023-09-18T05:14:51;17.60;99.90
54264;DHT22;40178;53.042;6.406;2023-09-18T05:17:17;17.60;99.90
54264;DHT22;40178;53.042;6.406;2023-09-18T05:19:44;17.70;99.90
54264;DHT22;40178;53.042;6.406;2023-09-18T05:22:10;17.80;99.90
54264;DHT22;40178;53.042;6.406;2023-09-18T05:24:37;17.70;99.90
54264;DHT22;40178;53.042;6.406;2023-09-18T05:27:03;17.70;99.90
54264;DHT22;40178;53.042;6.406;2023-09-18T05:29:29;17.70;99.90
54264;DHT22;40178;53.042;6.406;2023-09-18T05:31:54;17.70;99.90
54264;DHT22;40178;53.042;6.406;2023-09-18T05:34:20;17.70;99.90
54264;DHT22;40178;53.042;6.406;2023-09-18T05:36:45;17.60;99.90
54264;DHT22;40178;53.042;6.406;2023-09-18T05:39:11;17.70;99.90
54264;DHT22;40178;53.042;6.406;2023-09-18T05:41:41;17.70;99.90
54264;DHT22;40178;53.042;6.406;2023-09-18T05:44:07;17.80;99.90
54264;DHT22;40178;53.042;6.406;2023-09-18T05:46:36;17.70;99.90
54264;DHT22;40178;53.042;6.406;2023-09-18T05:49:02;17.80;99.90
54264;DHT22;40178;53.042;6.406;2023-09-18T05:51:29;17.80;99.90
54264;DHT22;40178;53.042;6.406;2023-09-18T05:53:55;17.70;99.90
54264;DHT22;40178;53.042;6.406;2023-09-18T05:56:20;17.80;99.90
54264;DHT22;40178;53.042;6.406;2023-09-18T05:58:46;17.90;99.90
54264;DHT22;40178;53.042;6.406;2023-09-18T06:01:12;17.80;99.90
54264;DHT22;40178;53.042;6.406;2023-09-18T06:03:37;17.80;99.90
54264;DHT22;40178;53.042;6.406;2023-09-18T06:06:04;17.80;99.90
54264;DHT22;40178;53.042;6.406;2023-09-18T06:08:30;17.90;99.90
54264;DHT22;40178;53.042;6.406;2023-09-18T06:11:00;18.00;99.90
54264;DHT22;40178;53.042;6.406;2023-09-18T06:13:25;17.80;99.90
54264;DHT22;40178;53.042;6.406;2023-09-18T06:15:55;18.00;99.90
54264;DHT22;40178;53.042;6.406;2023-09-18T06:18:21;18.00;99.90
54264;DHT22;40178;53.042;6.406;2023-09-18T06:20:48;17.90;99.90
54264;DHT22;40178;53.042;6.406;2023-09-18T06:23:14;18.00;99.90
54264;DHT22;40178;53.042;6.406;2023-09-18T06:25:39;18.10;99.90
54264;DHT22;40178;53.042;6.406;2023-09-18T06:28:05;18.00;99.90
54264;DHT22;40178;53.042;6.406;2023-09-18T06:30:32;18.10;99.90
54264;DHT22;40178;53.042;6.406;2023-09-18T06:32:59;18.00;99.90
54264;DHT22;40178;53.042;6.406;2023-09-18T06:35:25;18.00;99.90
54264;DHT22;40178;53.042;6.406;2023-09-18T06:37:50;17.90;99.90
54264;DHT22;40178;53.042;6.406;2023-09-18T06:40:16;18.00;99.90
54264;DHT22;40178;53.042;6.406;2023-09-18T06:42:42;18.00;99.90
54264;DHT22;40178;53.042;6.406;2023-09-18T06:45:08;17.90;99.90
54264;DHT22;40178;53.042;6.406;2023-09-18T06:47:34;17.90;99.90
54264;DHT22;40178;53.042;6.406;2023-09-18T06:50:00;18.00;99.90
54264;DHT22;40178;53.042;6.406;2023-09-18T06:52:26;18.00;99.90
54264;DHT22;40178;53.042;6.406;2023-09-18T06:54:53;18.20;99.90
54264;DHT22;40178;53.042;6.406;2023-09-18T06:57:19;18.00;99.90
54264;DHT22;40178;53.042;6.406;2023-09-18T06:59:46;18.00;99.90
54264;DHT22;40178;53.042;6.406;2023-09-18T07:02:12;18.00;99.90
54264;DHT22;40178;53.042;6.406;2023-09-18T07:04:40;18.00;99.90
54264;DHT22;40178;53.042;6.406;2023-09-18T07:07:11;18.10;99.90
54264;DHT22;40178;53.042;6.406;2023-09-18T07:09:38;18.00;99.90
54264;DHT22;40178;53.042;6.406;2023-09-18T07:12:04;18.10;99.90
54264;DHT22;40178;53.042;6.406;2023-09-18T07:14:30;18.00;99.90
54264;DHT22;40178;53.042;6.406;2023-09-18T07:16:56;18.10;99.90
54264;DHT22;40178;53.042;6.406;2023-09-18T07:19:22;18.20;99.90
54264;DHT22;40178;53.042;6.406;2023-09-18T07:21:47;18.20;99.90
54264;DHT22;40178;53.042;6.406;2023-09-18T07:24:13;18.20;99.90
54264;DHT22;40178;53.042;6.406;2023-09-18T07:26:44;18.20;99.90
54264;DHT22;40178;53.042;6.406;2023-09-18T07:29:10;18.20;99.90
54264;DHT22;40178;53.042;6.406;2023-09-18T07:31:35;17.90;99.90
54264;DHT22;40178;53.042;6.406;2023-09-18T07:34:02;18.10;99.90
54264;DHT22;40178;53.042;6.406;2023-09-18T07:36:29;18.00;99.90
54264;DHT22;40178;53.042;6.406;2023-09-18T07:38:55;18.00;99.90
54264;DHT22;40178;53.042;6.406;2023-09-18T07:41:22;18.00;99.90
54264;DHT22;40178;53.042;6.406;2023-09-18T07:43:48;18.00;99.90
54264;DHT22;40178;53.042;6.406;2023-09-18T07:46:13;18.00;99.90
54264;DHT22;40178;53.042;6.406;2023-09-18T07:48:39;17.90;99.90
54264;DHT22;40178;53.042;6.406;2023-09-18T07:51:05;18.10;99.90
54264;DHT22;40178;53.042;6.406;2023-09-18T07:53:30;18.00;99.90
54264;DHT22;40178;53.042;6.406;2023-09-18T07:55:58;17.90;99.90
54264;DHT22;40178;53.042;6.406;2023-09-18T07:58:25;17.90;99.90
54264;DHT22;40178;53.042;6.406;2023-09-18T08:00:54;18.20;99.90
54264;DHT22;40178;53.042;6.406;2023-09-18T08:03:20;18.00;99.90
54264;DHT22;40178;53.042;6.406;2023-09-18T08:05:52;18.00;99.90
54264;DHT22;40178;53.042;6.406;2023-09-18T08:08:19;17.90;99.90
54264;DHT22;40178;53.042;6.406;2023-09-18T08:10:46;18.10;99.90
54264;DHT22;40178;53.042;6.406;2023-09-18T08:13:12;18.00;99.90
54264;DHT22;40178;53.042;6.406;2023-09-18T08:15:38;18.00;99.90
54264;DHT22;40178;53.042;6.406;2023-09-18T08:18:04;18.10;99.90
54264;DHT22;40178;53.042;6.406;2023-09-18T08:20:29;18.20;99.90
54264;DHT22;40178;53.042;6.406;2023-09-18T08:22:55;18.10;99.90
54264;DHT22;40178;53.042;6.406;2023-09-18T08:25:22;18.10;99.90
54264;DHT22;40178;53.042;6.406;2023-09-18T08:27:47;18.20;99.90
54264;DHT22;40178;53.042;6.406;2023-09-18T08:30:14;18.20;99.90
54264;DHT22;40178;53.042;6.406;2023-09-18T08:32:41;18.20;99.90
54264;DHT22;40178;53.042;6.406;2023-09-18T08:35:07;18.20;99.90
54264;DHT22;40178;53.042;6.406;2023-09-18T08:37:33;18.40;99.90
54264;DHT22;40178;53.042;6.406;2023-09-18T08:39:59;18.50;99.90
54264;DHT22;40178;53.042;6.406;2023-09-18T08:42:36;18.40;99.90
54264;DHT22;40178;53.042;6.406;2023-09-18T08:45:07;18.80;99.90
54264;DHT22;40178;53.042;6.406;2023-09-18T08:47:34;18.50;99.90
54264;DHT22;40178;53.042;6.406;2023-09-18T08:50:01;18.70;99.90
54264;DHT22;40178;53.042;6.406;2023-09-18T08:52:27;18.80;99.90
54264;DHT22;40178;53.042;6.406;2023-09-18T08:54:54;18.60;99.90
54264;DHT22;40178;53.042;6.406;2023-09-18T08:57:21;18.70;99.90
54264;DHT22;40178;53.042;6.406;2023-09-18T08:59:48;18.60;99.90
54264;DHT22;40178;53.042;6.406;2023-09-18T09:02:14;18.50;99.90
54264;DHT22;40178;53.042;6.406;2023-09-18T09:04:40;18.80;99.90
54264;DHT22;40178;53.042;6.406;2023-09-18T09:07:06;18.60;99.90
54264;DHT22;40178;53.042;6.406;2023-09-18T09:09:32;18.60;99.90
54264;DHT22;40178;53.042;6.406;2023-09-18T09:11:58;18.60;99.90
54264;DHT22;40178;53.042;6.406;2023-09-18T09:14:24;18.70;99.90
54264;DHT22;40178;53.042;6.406;2023-09-18T09:16:56;18.60;99.90
54264;DHT22;40178;53.042;6.406;2023-09-18T09:19:32;18.80;99.90
54264;DHT22;40178;53.042;6.406;2023-09-18T09:22:01;18.70;99.90
54264;DHT22;40178;53.042;6.406;2023-09-18T09:24:40;19.00;99.90
54264;DHT22;40178;53.042;6.406;2023-09-18T09:27:07;19.00;99.90
54264;DHT22;40178;53.042;6.406;2023-09-18T09:29:33;18.90;99.90
54264;DHT22;40178;53.042;6.406;2023-09-18T09:32:16;18.90;99.90
54264;DHT22;40178;53.042;6.406;2023-09-18T09:34:42;19.10;99.90
54264;DHT22;40178;53.042;6.406;2023-09-18T09:37:09;19.20;99.90
54264;DHT22;40178;53.042;6.406;2023-09-18T09:39:51;19.00;99.90
54264;DHT22;40178;53.042;6.406;2023-09-18T09:42:19;19.10;99.90
54264;DHT22;40178;53.042;6.406;2023-09-18T09:45:04;19.10;99.90
54264;DHT22;40178;53.042;6.406;2023-09-18T09:47:35;19.40;99.90
54264;DHT22;40178;53.042;6.406;2023-09-18T09:50:15;19.30;99.90
54264;DHT22;40178;53.042;6.406;2023-09-18T09:52:50;19.50;99.90
54264;DHT22;40178;53.042;6.406;2023-09-18T09:55:26;19.70;99.90
54264;DHT22;40178;53.042;6.406;2023-09-18T09:57:57;19.60;99.90
54264;DHT22;40178;53.042;6.406;2023-09-18T10:03:04;19.90;99.90
54264;DHT22;40178;53.042;6.406;2023-09-18T10:05:32;19.90;99.90
54264;DHT22;40178;53.042;6.406;2023-09-18T10:08:45;20.10;99.90
54264;DHT22;40178;53.042;6.406;2023-09-18T10:10:52;20.00;99.90
54264;DHT22;40178;53.042;6.406;2023-09-18T10:13:41;20.30;99.90
54264;DHT22;40178;53.042;6.406;2023-09-18T10:16:12;20.40;99.90
54264;DHT22;40178;53.042;6.406;2023-09-18T10:18:56;20.50;99.90
54264;DHT22;40178;53.042;6.406;2023-09-18T10:26:34;20.70;99.90
54264;DHT22;40178;53.042;6.406;2023-09-18T10:29:04;20.60;99.90
54264;DHT22;40178;53.042;6.406;2023-09-18T10:31:34;20.70;99.90
54264;DHT22;40178;53.042;6.406;2023-09-18T10:34:02;20.80;99.90
54264;DHT22;40178;53.042;6.406;2023-09-18T10:36:29;20.80;99.90
54264;DHT22;40178;53.042;6.406;2023-09-18T10:38:56;21.10;99.90
54264;DHT22;40178;53.042;6.406;2023-09-18T10:41:25;21.20;99.90
54264;DHT22;40178;53.042;6.406;2023-09-18T10:43:53;21.50;99.90
54264;DHT22;40178;53.042;6.406;2023-09-18T10:46:22;21.70;99.90
54264;DHT22;40178;53.042;6.406;2023-09-18T10:48:48;21.80;99.90
54264;DHT22;40178;53.042;6.406;2023-09-18T10:51:14;21.70;99.90
54264;DHT22;40178;53.042;6.406;2023-09-18T10:53:40;21.60;99.90
54264;DHT22;40178;53.042;6.406;2023-09-18T10:56:06;21.80;99.90
54264;DHT22;40178;53.042;6.406;2023-09-18T10:58:33;21.60;99.90
54264;DHT22;40178;53.042;6.406;2023-09-18T11:01:02;21.50;99.90
54264;DHT22;40178;53.042;6.406;2023-09-18T11:03:33;21.30;99.90
54264;DHT22;40178;53.042;6.406;2023-09-18T11:06:17;21.20;99.90
54264;DHT22;40178;53.042;6.406;2023-09-18T11:08:47;21.10;99.90
54264;DHT22;40178;53.042;6.406;2023-09-18T11:11:18;21.10;99.90
54264;DHT22;40178;53.042;6.406;2023-09-18T11:13:51;21.30;99.90
54264;DHT22;40178;53.042;6.406;2023-09-18T11:21:30;22.00;99.90
54264;DHT22;40178;53.042;6.406;2023-09-18T11:24:04;22.10;99.90
54264;DHT22;40178;53.042;6.406;2023-09-18T11:26:32;22.30;99.90
54264;DHT22;40178;53.042;6.406;2023-09-18T11:29:04;22.30;99.90
54264;DHT22;40178;53.042;6.406;2023-09-18T11:31:54;22.20;99.90
54264;DHT22;40178;53.042;6.406;2023-09-18T11:34:27;22.20;99.90
54264;DHT22;40178;53.042;6.406;2023-09-18T11:36:55;22.20;99.90
54264;DHT22;40178;53.042;6.406;2023-09-18T11:39:37;22.20;99.90
54264;DHT22;40178;53.042;6.406;2023-09-18T11:42:17;22.10;99.90
54264;DHT22;40178;53.042;6.406;2023-09-18T11:44:43;22.20;99.90
54264;DHT22;40178;53.042;6.406;2023-09-18T11:47:13;22.20;99.90
54264;DHT22;40178;53.042;6.406;2023-09-18T11:49:57;22.20;99.90
54264;DHT22;40178;53.042;6.406;2023-09-18T11:52:27;22.50;99.90
54264;DHT22;40178;53.042;6.406;2023-09-18T11:54:55;22.50;99.90
54264;DHT22;40178;53.042;6.406;2023-09-18T11:57:21;22.50;99.90
54264;DHT22;40178;53.042;6.406;2023-09-18T11:59:47;22.50;99.90
54264;DHT22;40178;53.042;6.406;2023-09-18T12:02:14;22.40;99.90
54264;DHT22;40178;53.042;6.406;2023-09-18T12:04:51;22.10;99.90
54264;DHT22;40178;53.042;6.406;2023-09-18T12:07:17;22.00;99.90
54264;DHT22;40178;53.042;6.406;2023-09-18T12:09:44;22.00;99.90
54264;DHT22;40178;53.042;6.406;2023-09-18T12:12:10;22.00;99.90
54264;DHT22;40178;53.042;6.406;2023-09-18T12:14:39;22.30;99.90
54264;DHT22;40178;53.042;6.406;2023-09-18T12:17:07;22.10;99.90
54264;DHT22;40178;53.042;6.406;2023-09-18T12:19:34;22.10;99.90
54264;DHT22;40178;53.042;6.406;2023-09-18T12:22:02;22.10;99.90
54264;DHT22;40178;53.042;6.406;2023-09-18T12:24:29;22.40;99.90
54264;DHT22;40178;53.042;6.406;2023-09-18T12:26:55;22.30;99.90
54264;DHT22;40178;53.042;6.406;2023-09-18T12:29:23;22.60;99.90
54264;DHT22;40178;53.042;6.406;2023-09-18T12:31:49;22.60;99.90
54264;DHT22;40178;53.042;6.406;2023-09-18T12:34:19;22.70;99.90
54264;DHT22;40178;53.042;6.406;2023-09-18T12:36:47;22.40;99.90
54264;DHT22;40178;53.042;6.406;2023-09-18T12:39:13;22.30;99.90
54264;DHT22;40178;53.042;6.406;2023-09-18T12:41:46;22.20;99.90
54264;DHT22;40178;53.042;6.406;2023-09-18T12:44:12;21.90;99.90
54264;DHT22;40178;53.042;6.406;2023-09-18T12:46:40;21.80;99.90
54264;DHT22;40178;53.042;6.406;2023-09-18T12:51:41;21.70;98.40
54264;DHT22;40178;53.042;6.406;2023-09-18T12:54:06;21.70;99.90
54264;DHT22;40178;53.042;6.406;2023-09-18T12:56:32;21.60;99.90
54264;DHT22;40178;53.042;6.406;2023-09-18T12:58:58;21.60;99.90
54264;DHT22;40178;53.042;6.406;2023-09-18T13:01:24;21.60;99.90
54264;DHT22;40178;53.042;6.406;2023-09-18T13:03:53;21.50;99.90
54264;DHT22;40178;53.042;6.406;2023-09-18T13:06:19;21.60;99.90
54264;DHT22;40178;53.042;6.406;2023-09-18T13:08:46;21.90;99.90
54264;DHT22;40178;53.042;6.406;2023-09-18T13:11:12;22.10;99.90
54264;DHT22;40178;53.042;6.406;2023-09-18T13:13:40;22.10;99.90
54264;DHT22;40178;53.042;6.406;2023-09-18T13:16:08;22.20;99.70
54264;DHT22;40178;53.042;6.406;2023-09-18T13:18:37;22.30;98.70
54264;DHT22;40178;53.042;6.406;2023-09-18T13:21:12;22.40;99.60
54264;DHT22;40178;53.042;6.406;2023-09-18T13:23:39;22.60;94.00
54264;DHT22;40178;53.042;6.406;2023-09-18T13:26:06;22.80;99.90
54264;DHT22;40178;53.042;6.406;2023-09-18T13:28:33;22.80;99.90
54264;DHT22;40178;53.042;6.406;2023-09-18T13:31:04;22.90;98.20
54264;DHT22;40178;53.042;6.406;2023-09-18T13:33:31;22.70;90.90
54264;DHT22;40178;53.042;6.406;2023-09-18T13:35:58;22.60;72.70
54264;DHT22;40178;53.042;6.406;2023-09-18T13:38:24;22.70;94.10
54264;DHT22;40178;53.042;6.406;2023-09-18T13:40:53;22.90;91.70
54264;DHT22;40178;53.042;6.406;2023-09-18T13:43:20;22.90;86.60
54264;DHT22;40178;53.042;6.406;2023-09-18T13:45:47;22.80;85.50
54264;DHT22;40178;53.042;6.406;2023-09-18T13:48:13;22.50;79.70
54264;DHT22;40178;53.042;6.406;2023-09-18T13:50:41;22.40;94.90
54264;DHT22;40178;53.042;6.406;2023-09-18T13:53:06;22.40;93.00
54264;DHT22;40178;53.042;6.406;2023-09-18T13:55:33;22.70;87.10
54264;DHT22;40178;53.042;6.406;2023-09-18T13:57:59;22.90;89.00
54264;DHT22;40178;53.042;6.406;2023-09-18T14:00:25;23.00;82.00
54264;DHT22;40178;53.042;6.406;2023-09-18T14:02:52;23.10;91.00
54264;DHT22;40178;53.042;6.406;2023-09-18T14:05:17;23.30;64.70
54264;DHT22;40178;53.042;6.406;2023-09-18T14:07:43;23.40;76.80
54264;DHT22;40178;53.042;6.406;2023-09-18T14:10:10;23.50;83.30
54264;DHT22;40178;53.042;6.406;2023-09-18T14:12:40;23.40;42.60
54264;DHT22;40178;53.042;6.406;2023-09-18T14:15:07;23.10;75.30
54264;DHT22;40178;53.042;6.406;2023-09-18T14:17:34;23.00;81.40
54264;DHT22;40178;53.042;6.406;2023-09-18T14:20:00;23.30;63.30
54264;DHT22;40178;53.042;6.406;2023-09-18T14:22:26;23.20;71.20
54264;DHT22;40178;53.042;6.406;2023-09-18T14:24:52;23.10;57.10
54264;DHT22;40178;53.042;6.406;2023-09-18T14:27:17;22.90;67.50
54264;DHT22;40178;53.042;6.406;2023-09-18T14:29:43;22.70;64.30
54264;DHT22;40178;53.042;6.406;2023-09-18T14:32:10;22.50;70.20
54264;DHT22;40178;53.042;6.406;2023-09-18T14:34:37;22.80;62.10
54264;DHT22;40178;53.042;6.406;2023-09-18T14:37:03;22.90;57.90
54264;DHT22;40178;53.042;6.406;2023-09-18T14:39:32;23.10;59.30
54264;DHT22;40178;53.042;6.406;2023-09-18T14:41:58;22.90;62.30
54264;DHT22;40178;53.042;6.406;2023-09-18T14:44:25;22.70;49.10
54264;DHT22;40178;53.042;6.406;2023-09-18T14:46:51;22.40;71.40
54264;DHT22;40178;53.042;6.406;2023-09-18T14:49:18;22.40;81.60
54264;DHT22;40178;53.042;6.406;2023-09-18T14:51:43;22.90;79.40
54264;DHT22;40178;53.042;6.406;2023-09-18T14:54:09;23.20;77.80
54264;DHT22;40178;53.042;6.406;2023-09-18T14:56:36;23.40;65.10
54264;DHT22;40178;53.042;6.406;2023-09-18T14:59:02;23.30;60.90
54264;DHT22;40178;53.042;6.406;2023-09-18T15:01:28;23.10;70.00
54264;DHT22;40178;53.042;6.406;2023-09-18T15:03:54;23.00;63.30
54264;DHT22;40178;53.042;6.406;2023-09-18T15:06:20;22.90;65.40
54264;DHT22;40178;53.042;6.406;2023-09-18T15:08:46;22.70;48.90
54264;DHT22;40178;53.042;6.406;2023-09-18T15:11:12;22.60;57.90
54264;DHT22;40178;53.042;6.406;2023-09-18T15:13:38;22.40;49.60
54264;DHT22;40178;53.042;6.406;2023-09-18T15:16:04;22.30;59.00
54264;DHT22;40178;53.042;6.406;2023-09-18T15:18:31;22.20;38.00
54264;DHT22;40178;53.042;6.406;2023-09-18T15:20:56;22.10;43.80
54264;DHT22;40178;53.042;6.406;2023-09-18T15:23:23;22.00;45.20
54264;DHT22;40178;53.042;6.406;2023-09-18T15:25:49;22.00;41.90
54264;DHT22;40178;53.042;6.406;2023-09-18T15:28:16;22.00;46.10
54264;DHT22;40178;53.042;6.406;2023-09-18T15:30:45;22.00;53.10
54264;DHT22;40178;53.042;6.406;2023-09-18T15:33:10;22.00;52.40
54264;DHT22;40178;53.042;6.406;2023-09-18T15:35:37;21.90;54.90
54264;DHT22;40178;53.042;6.406;2023-09-18T15:38:03;21.80;51.40
54264;DHT22;40178;53.042;6.406;2023-09-18T15:40:29;21.80;56.70
54264;DHT22;40178;53.042;6.406;2023-09-18T15:42:54;21.70;59.60
54264;DHT22;40178;53.042;6.406;2023-09-18T15:45:20;21.70;49.00
54264;DHT22;40178;53.042;6.406;2023-09-18T15:47:46;21.60;32.30
54264;DHT22;40178;53.042;6.406;2023-09-18T15:50:12;21.50;51.30